createdAt,value
2019-03-04T00:00:55.123Z,96986.97
2019-03-04T00:03:24.525Z,96976.97
2019-03-04T00:05:53.927Z,96967.69
2019-03-04T00:08:23.404Z,96956.00
2019-03-04T00:10:52.835Z,96953.39
2019-03-04T00:13:22.384Z,96958.88
2019-03-04T00:15:51.808Z,96945.41
2019-03-04T00:18:21.230Z,96936.36
2019-03-04T00:20:50.658Z,96942.94
2019-03-04T00:23:20.038Z,96942.94
2019-03-04T00:25:51.750Z,96940.70
2019-03-04T00:28:20.613Z,96940.70
2019-03-04T00:30:50.022Z,96928.08
2019-03-04T00:33:19.390Z,96938.48
2019-03-04T00:35:48.822Z,96931.02
2019-03-04T00:38:18.203Z,96931.02
2019-03-04T00:40:47.673Z,96926.64
2019-03-04T00:43:17.105Z,96925.20
2019-03-04T00:45:46.590Z,96935.73
2019-03-04T00:48:16.012Z,96937.08
2019-03-04T00:50:45.838Z,96937.08
2019-03-04T00:53:15.268Z,96926.88
2019-03-04T00:55:44.761Z,96923.02
2019-03-04T00:58:14.146Z,96923.02
2019-03-04T01:00:43.545Z,96909.16
2019-03-04T01:03:12.933Z,96909.16
2019-03-04T01:05:42.338Z,96904.73
2019-03-04T01:08:11.939Z,96904.73
2019-03-04T01:10:41.821Z,96899.68
2019-03-04T01:13:11.386Z,96901.73
2019-03-04T01:15:40.895Z,96888.97
2019-03-04T01:18:10.281Z,96879.31
2019-03-04T01:20:39.776Z,96879.31
2019-03-04T01:23:09.177Z,96880.52
2019-03-04T01:25:38.558Z,96880.66
2019-03-04T01:28:08.013Z,96877.03
2019-03-04T01:30:37.426Z,96872.89
2019-03-04T01:33:06.947Z,96869.75
2019-03-04T01:35:36.331Z,96854.39
2019-03-04T01:38:05.795Z,96854.39
2019-03-04T01:40:35.165Z,96849.88
2019-03-04T01:43:04.529Z,96832.08
2019-03-04T01:45:33.932Z,96817.19
2019-03-04T01:48:03.405Z,96817.19
2019-03-04T01:50:32.806Z,96795.11
2019-03-04T01:53:02.170Z,96787.05
2019-03-04T01:55:31.592Z,96797.34
2019-03-04T01:58:00.937Z,96797.34
2019-03-04T02:00:30.560Z,96794.63
2019-03-04T02:02:59.952Z,96794.39
2019-03-04T02:05:29.360Z,96790.13
2019-03-04T02:07:58.777Z,96790.13
2019-03-04T02:10:28.151Z,96785.21
2019-03-04T02:12:57.595Z,96775.49
2019-03-04T02:15:27.000Z,96778.19
2019-03-04T02:17:56.514Z,96773.19
2019-03-04T02:20:25.889Z,96769.00
2019-03-04T02:22:55.685Z,96771.53
2019-03-04T02:25:57.465Z,96761.86
2019-03-04T02:28:26.996Z,96758.23
2019-03-04T02:30:56.383Z,96734.23
2019-03-04T02:33:25.765Z,96734.23
2019-03-04T02:35:55.177Z,96735.16
2019-03-04T02:38:24.547Z,96731.36
2019-03-04T02:40:53.943Z,96731.36
2019-03-04T02:43:23.378Z,96719.06
2019-03-04T02:45:52.904Z,96728.66
2019-03-04T02:48:22.385Z,96719.64
2019-03-04T02:50:51.757Z,96719.64
2019-03-04T02:53:21.156Z,96689.11
2019-03-04T02:55:50.529Z,96689.11
2019-03-04T02:58:19.931Z,96695.91
2019-03-04T03:00:49.310Z,96697.41
2019-03-04T03:03:18.724Z,96699.70
2019-03-04T03:05:48.108Z,96696.69
2019-03-04T03:08:17.477Z,96696.69
2019-03-04T03:10:48.748Z,96689.34
2019-03-04T03:13:18.232Z,96681.03
2019-03-04T03:15:47.665Z,96675.42
2019-03-04T03:18:17.065Z,96675.42
2019-03-04T03:20:46.583Z,96671.55
2019-03-04T03:23:16.024Z,96677.02
2019-03-04T03:25:45.400Z,96677.02
2019-03-04T03:28:15.008Z,96674.40
2019-03-04T03:30:44.427Z,96663.11
2019-03-04T03:33:13.845Z,96673.25
2019-03-04T03:35:43.231Z,96673.25
2019-03-04T03:38:12.870Z,96658.77
2019-03-04T03:40:42.246Z,96658.77
2019-03-04T03:43:12.241Z,96657.82
2019-03-04T03:45:41.620Z,96665.02
2019-03-04T03:48:10.990Z,96665.02
2019-03-04T03:50:40.406Z,96651.95
2019-03-04T03:53:09.972Z,96642.53
2019-03-04T03:55:39.407Z,96642.53
2019-03-04T03:58:08.874Z,96650.19
2019-03-04T04:00:38.427Z,96631.70
2019-03-04T04:03:07.978Z,96641.95
2019-03-04T04:05:37.349Z,96641.95
2019-03-04T04:08:06.751Z,96636.56
2019-03-04T04:10:36.139Z,96636.56
2019-03-04T04:13:05.549Z,96636.80
2019-03-04T04:15:34.964Z,96626.64
2019-03-04T04:18:04.380Z,96626.64
2019-03-04T04:20:33.737Z,96623.17
2019-03-04T04:23:03.153Z,96608.47
2019-03-04T04:25:32.536Z,96606.50
2019-03-04T04:28:03.741Z,96603.38
2019-03-04T04:30:33.498Z,96603.38
2019-03-04T04:33:02.902Z,96602.66
2019-03-04T04:35:32.310Z,96602.66
2019-03-04T04:38:01.844Z,96605.50
2019-03-04T04:40:31.265Z,96604.97
2019-03-04T04:43:00.645Z,96596.59
2019-03-04T04:45:30.083Z,96585.06
2019-03-04T04:47:59.589Z,96585.06
2019-03-04T04:50:28.968Z,96575.28
2019-03-04T04:52:58.385Z,96567.05
2019-03-04T04:55:27.761Z,96567.05
2019-03-04T04:57:57.246Z,96552.52
2019-03-04T05:00:26.745Z,96528.54
2019-03-04T05:02:56.178Z,96521.12
2019-03-04T05:05:25.567Z,96516.42
2019-03-04T05:07:55.012Z,96509.30
2019-03-04T05:10:24.432Z,96498.19
2019-03-04T05:12:53.797Z,96498.19
2019-03-04T05:15:23.432Z,96492.02
2019-03-04T05:17:52.806Z,96482.42
2019-03-04T05:20:22.509Z,96471.61
2019-03-04T05:22:51.959Z,96459.91
2019-03-04T05:25:21.370Z,96459.91
2019-03-04T05:27:50.973Z,96454.38
2019-03-04T05:30:20.488Z,96455.06
2019-03-04T05:32:49.859Z,96453.03
2019-03-04T05:35:19.242Z,96456.28
2019-03-04T05:37:48.632Z,96438.45
2019-03-04T05:40:18.347Z,96430.19
2019-03-04T05:42:47.732Z,96416.88
2019-03-04T05:45:17.460Z,96416.88
2019-03-04T05:47:46.834Z,96402.79
2019-03-04T05:50:17.101Z,96387.77
2019-03-04T05:52:46.530Z,96384.88
2019-03-04T05:55:15.943Z,96385.55
2019-03-04T05:57:45.395Z,96374.16
2019-03-04T06:00:17.262Z,96360.08
2019-03-04T06:02:46.664Z,96360.08
2019-03-04T06:05:16.466Z,96351.30
2019-03-04T06:07:52.061Z,96343.47
2019-03-04T06:10:21.456Z,96328.30
2019-03-04T06:12:50.852Z,96330.09
2019-03-04T06:15:21.383Z,96304.64
2019-03-04T06:17:50.909Z,96294.77
2019-03-04T06:20:20.966Z,96285.15
2019-03-04T06:22:50.577Z,96277.72
2019-03-04T06:25:22.904Z,96275.50
2019-03-04T06:27:52.349Z,96287.13
2019-03-04T06:30:23.142Z,96284.01
2019-03-04T06:32:52.519Z,96270.31
2019-03-04T06:35:21.934Z,96273.34
2019-03-04T06:37:51.525Z,96270.54
2019-03-04T06:40:21.824Z,96264.25
2019-03-04T06:42:51.353Z,96263.25
2019-03-04T06:45:20.944Z,96254.17
2019-03-04T06:47:50.327Z,96253.48
2019-03-04T06:50:44.575Z,96256.84
2019-03-04T06:53:14.195Z,96261.32
2019-03-04T06:56:17.837Z,96245.83
2019-03-04T06:58:48.838Z,96246.48
2019-03-04T07:01:23.328Z,96253.31
2019-03-04T07:03:58.617Z,96261.19
2019-03-04T07:06:28.063Z,96260.39
2019-03-04T07:09:17.971Z,96249.14
2019-03-04T07:11:51.472Z,96235.20
2019-03-04T07:14:20.862Z,96241.52
2019-03-04T07:16:54.144Z,96242.87
2019-03-04T07:19:31.166Z,96243.09
2019-03-04T07:22:00.685Z,96239.67
2019-03-04T07:24:30.099Z,96237.98
2019-03-04T07:27:00.108Z,96246.84
2019-03-04T07:29:29.504Z,96242.58
2019-03-04T07:31:58.875Z,96254.95
2019-03-04T07:34:28.263Z,96235.76
2019-03-04T07:36:57.633Z,96254.27
2019-03-04T07:39:27.019Z,96233.05
2019-03-04T07:41:58.544Z,96235.84
2019-03-04T07:44:28.021Z,96231.36
2019-03-04T07:46:57.487Z,96225.69
2019-03-04T07:49:26.871Z,96226.16
2019-03-04T07:51:56.383Z,96216.58
2019-03-04T07:54:25.754Z,96222.88
2019-03-04T07:56:55.249Z,96220.63
2019-03-04T07:59:24.615Z,96216.50
2019-03-04T08:01:54.004Z,96224.81
2019-03-04T08:04:23.431Z,96223.86
2019-03-04T08:07:04.681Z,96224.08
2019-03-04T08:10:20.988Z,96220.74
2019-03-04T08:13:24.398Z,96230.20
2019-03-04T08:15:56.351Z,96248.29
2019-03-04T08:18:25.801Z,96266.03
2019-03-04T08:21:01.885Z,96227.89
2019-03-04T08:23:31.522Z,96245.45
2019-03-04T08:26:01.740Z,96240.76
2019-03-04T08:28:31.122Z,96236.34
2019-03-04T08:31:00.757Z,96238.36
2019-03-04T08:33:30.349Z,96249.60
2019-03-04T08:35:59.757Z,96244.41
2019-03-04T08:38:29.123Z,96249.20
2019-03-04T08:40:58.529Z,96253.72
2019-03-04T08:43:27.908Z,96263.88
2019-03-04T08:45:57.303Z,96278.72
2019-03-04T08:48:26.808Z,96297.06
2019-03-04T08:50:56.435Z,96312.48
2019-03-04T08:53:25.976Z,96322.77
2019-03-04T08:55:55.419Z,96323.20
2019-03-04T08:58:25.319Z,96333.05
2019-03-04T09:00:54.999Z,96331.98
2019-03-04T09:03:24.387Z,96318.73
2019-03-04T09:05:53.805Z,96329.68
2019-03-04T09:08:23.226Z,96330.89
2019-03-04T09:10:53.176Z,96332.24
2019-03-04T09:13:22.532Z,96339.89
2019-03-04T09:15:51.914Z,96353.89
2019-03-04T09:18:21.365Z,96360.66
2019-03-04T09:20:50.836Z,96366.66
2019-03-04T09:23:20.251Z,96360.03
2019-03-04T09:25:54.579Z,96359.30
2019-03-04T09:28:24.680Z,96351.09
2019-03-04T09:30:54.059Z,96372.73
2019-03-04T09:33:23.473Z,96377.31
2019-03-04T09:35:52.887Z,96392.48
2019-03-04T09:38:22.297Z,96407.09
2019-03-04T09:40:52.110Z,96412.57
2019-03-04T09:43:21.489Z,96439.11
2019-03-04T09:45:51.816Z,96435.60
2019-03-04T09:48:21.711Z,96434.77
2019-03-04T09:50:51.537Z,96422.59
2019-03-04T09:53:20.967Z,96415.87
2019-03-04T09:55:51.036Z,96411.42
2019-03-04T09:58:20.754Z,96429.72
2019-03-04T10:01:07.540Z,96457.44
2019-03-04T10:04:30.003Z,96441.16
2019-03-04T10:07:18.851Z,96441.47
2019-03-04T10:10:13.025Z,96418.93
2019-03-04T10:13:09.011Z,96416.36
2019-03-04T10:16:20.900Z,96377.20
2019-03-04T10:19:40.457Z,96361.89
2019-03-04T10:22:35.291Z,96337.66
2019-03-04T10:25:46.492Z,96306.61
2019-03-04T10:28:40.654Z,96269.69
2019-03-04T10:32:06.110Z,96266.40
2019-03-04T10:35:13.872Z,96269.55
2019-03-04T10:38:22.883Z,96240.62
2019-03-04T10:40:59.141Z,96262.10
2019-03-04T10:44:08.494Z,96240.70
2019-03-04T10:46:58.062Z,96237.75
2019-03-04T10:49:31.703Z,96250.34
2019-03-04T10:52:01.411Z,96228.84
2019-03-04T10:54:30.786Z,96228.08
2019-03-04T10:57:00.994Z,96236.20
2019-03-04T10:59:31.150Z,96227.88
2019-03-04T11:02:01.244Z,96229.95
2019-03-04T11:04:31.193Z,96258.52
2019-03-04T11:07:00.585Z,96264.25
2019-03-04T11:09:30.155Z,96251.15
2019-03-04T11:12:00.371Z,96292.95
2019-03-04T11:14:29.737Z,96259.55
2019-03-04T11:16:59.627Z,96248.16
2019-03-04T11:19:29.150Z,96232.74
2019-03-04T11:21:58.524Z,96257.55
2019-03-04T11:24:28.012Z,96261.20
2019-03-04T11:26:57.388Z,96270.62
2019-03-04T11:29:27.122Z,96271.28
2019-03-04T11:31:56.838Z,96270.26
2019-03-04T11:34:26.223Z,96290.47
2019-03-04T11:36:55.626Z,96312.98
2019-03-04T11:39:55.123Z,96303.13
2019-03-04T11:42:24.562Z,96301.66
2019-03-04T11:44:53.901Z,96309.20
2019-03-04T11:47:27.303Z,96291.64
2019-03-04T11:49:56.825Z,96278.88
2019-03-04T11:52:26.214Z,96271.12
2019-03-04T11:54:55.620Z,96282.31
2019-03-04T11:57:25.149Z,96272.72
2019-03-04T11:59:54.666Z,96268.67
2019-03-04T12:02:27.065Z,96229.45
2019-03-04T12:04:56.519Z,96209.51
2019-03-04T12:07:25.947Z,96211.89
2019-03-04T12:09:55.464Z,96240.27
2019-03-04T12:12:25.508Z,96251.39
2019-03-04T12:14:55.093Z,96252.92
2019-03-04T12:17:24.476Z,96259.39
2019-03-04T12:19:53.882Z,96268.34
2019-03-04T12:22:23.421Z,96261.27
2019-03-04T12:24:52.939Z,96254.27
2019-03-04T12:27:22.343Z,96279.37
2019-03-04T12:29:51.717Z,96274.31
2019-03-04T12:32:30.560Z,96266.28
2019-03-04T12:35:01.046Z,96293.70
2019-03-04T12:37:31.365Z,96261.91
2019-03-04T12:40:00.776Z,96279.81
2019-03-04T12:42:30.280Z,96289.41
2019-03-04T12:44:59.800Z,96301.94
2019-03-04T12:47:29.274Z,96292.91
2019-03-04T12:49:58.678Z,96313.15
2019-03-04T12:52:28.076Z,96297.64
2019-03-04T12:54:57.607Z,96313.36
2019-03-04T12:57:27.022Z,96306.53
2019-03-04T12:59:56.524Z,96299.05
2019-03-04T13:02:25.955Z,96291.91
2019-03-04T13:04:55.337Z,96280.41
2019-03-04T13:07:24.746Z,96295.50
2019-03-04T13:09:54.127Z,96294.02
2019-03-04T13:12:23.845Z,96271.02
2019-03-04T13:14:55.173Z,96284.73
2019-03-04T13:17:24.618Z,96253.17
2019-03-04T13:19:55.363Z,96248.81
2019-03-04T13:22:25.516Z,96250.98
2019-03-04T13:24:54.975Z,96242.75
2019-03-04T13:27:24.601Z,96243.59
2019-03-04T13:29:54.042Z,96245.95
2019-03-04T13:32:23.420Z,96233.75
2019-03-04T13:34:53.122Z,96251.36
2019-03-04T13:37:22.531Z,96225.38
2019-03-04T13:39:51.934Z,96243.91
2019-03-04T13:42:21.511Z,96241.45
2019-03-04T13:44:50.958Z,96240.37
2019-03-04T13:47:20.651Z,96257.69
2019-03-04T13:49:50.180Z,96255.51
2019-03-04T13:52:19.540Z,96253.98
2019-03-04T13:54:49.361Z,96253.57
2019-03-04T13:57:18.754Z,96240.33
2019-03-04T13:59:48.250Z,96242.84
2019-03-04T14:02:17.661Z,96258.41
2019-03-04T14:04:47.052Z,96237.31
2019-03-04T14:07:16.414Z,96235.96
2019-03-04T14:09:46.293Z,96227.53
2019-03-04T14:12:15.783Z,96220.37
2019-03-04T14:14:45.177Z,96239.33
2019-03-04T14:17:15.605Z,96215.88
2019-03-04T14:19:45.305Z,96232.30
2019-03-04T14:22:14.918Z,96218.59
2019-03-04T14:24:44.268Z,96213.63
2019-03-04T14:27:13.688Z,96213.63
2019-03-04T14:29:43.069Z,96223.84
2019-03-04T14:32:12.453Z,96215.20
2019-03-04T14:34:41.832Z,96233.86
2019-03-04T14:37:11.361Z,96220.92
2019-03-04T14:39:40.741Z,96228.17
2019-03-04T14:42:10.991Z,96216.02
2019-03-04T14:44:40.505Z,96199.56
2019-03-04T14:47:10.762Z,96206.59
2019-03-04T14:49:44.785Z,96202.31
2019-03-04T14:52:11.319Z,96215.25
2019-03-04T14:54:40.901Z,96198.05
2019-03-04T14:57:10.273Z,96190.38
2019-03-04T14:59:40.373Z,96208.41
2019-03-04T15:02:09.784Z,96195.80
2019-03-04T15:04:39.344Z,96201.88
2019-03-04T15:07:08.802Z,96204.52
2019-03-04T15:09:38.176Z,96216.02
2019-03-04T15:12:07.587Z,96210.11
2019-03-04T15:14:36.964Z,96207.66
2019-03-04T15:17:06.354Z,96215.66
2019-03-04T15:19:35.802Z,96222.31
2019-03-04T15:22:05.241Z,96253.41
2019-03-04T15:24:34.687Z,96247.72
2019-03-04T15:27:04.222Z,96233.55
2019-03-04T15:29:33.793Z,96240.47
2019-03-04T15:32:04.153Z,96244.06
2019-03-04T15:34:35.886Z,96229.18
2019-03-04T15:37:06.350Z,96218.76
2019-03-04T15:39:36.580Z,96222.52
2019-03-04T15:42:06.024Z,96232.19
2019-03-04T15:44:35.497Z,96228.02
2019-03-04T15:47:05.001Z,96208.35
2019-03-04T15:49:34.399Z,96224.23
2019-03-04T15:52:03.833Z,96215.88
2019-03-04T15:54:33.245Z,96221.69
2019-03-04T15:57:04.519Z,96225.17
2019-03-04T15:59:34.011Z,96225.98
2019-03-04T16:02:11.140Z,96229.78
2019-03-04T16:04:40.544Z,96231.61
2019-03-04T16:07:11.834Z,96239.38
2019-03-04T16:09:41.975Z,96231.50
2019-03-04T16:12:13.867Z,96228.19
2019-03-04T16:14:44.304Z,96225.53
2019-03-04T16:17:13.706Z,96223.28
2019-03-04T16:19:45.204Z,96228.02
2019-03-04T16:22:14.680Z,96224.47
2019-03-04T16:24:44.053Z,96226.26
2019-03-04T16:27:14.619Z,96223.26
2019-03-04T16:29:44.001Z,96212.81
2019-03-04T16:32:13.484Z,96206.44
2019-03-04T16:34:42.866Z,96202.26
2019-03-04T16:37:12.256Z,96205.05
2019-03-04T16:39:41.719Z,96202.76
2019-03-04T16:42:11.350Z,96203.73
2019-03-04T16:44:40.821Z,96193.16
2019-03-04T16:47:10.218Z,96208.88
2019-03-04T16:49:39.702Z,96214.47
2019-03-04T16:52:10.207Z,96246.13
2019-03-04T16:54:39.672Z,96323.06
2019-03-04T16:57:13.453Z,96419.41
2019-03-04T17:00:04.826Z,96422.86
2019-03-04T17:02:34.370Z,96410.98
2019-03-04T17:05:03.816Z,96424.33
2019-03-04T17:07:33.220Z,96438.86
2019-03-04T17:10:07.960Z,96415.33
2019-03-04T17:12:37.467Z,96440.08
2019-03-04T17:15:10.227Z,96409.81
2019-03-04T17:17:41.005Z,96422.55
2019-03-04T17:20:12.314Z,96414.28
2019-03-04T17:22:41.907Z,96416.09
2019-03-04T17:25:12.272Z,96425.20
2019-03-04T17:27:41.841Z,96422.68
2019-03-04T17:30:13.403Z,96427.89
2019-03-04T17:32:43.204Z,96438.67
2019-03-04T17:35:14.069Z,96430.91
2019-03-04T17:37:43.452Z,96436.97
2019-03-04T17:40:13.952Z,96435.09
2019-03-04T17:42:43.379Z,96435.09
2019-03-04T17:45:14.709Z,96434.48
2019-03-04T17:47:44.135Z,96430.06
2019-03-04T17:50:16.904Z,96430.85
2019-03-04T17:52:46.300Z,96440.02
2019-03-04T17:55:16.207Z,96447.73
2019-03-04T17:57:45.617Z,96458.73
2019-03-04T18:00:16.353Z,96449.83
2019-03-04T18:02:45.859Z,96460.88
2019-03-04T18:05:15.983Z,96469.39
2019-03-04T18:07:45.463Z,96459.91
2019-03-04T18:10:15.642Z,96471.37
2019-03-04T18:12:45.045Z,96485.39
2019-03-04T18:15:19.780Z,96477.06
2019-03-04T18:17:49.298Z,96468.61
2019-03-04T18:20:18.718Z,96490.30
2019-03-04T18:22:48.580Z,96498.44
2019-03-04T18:25:25.371Z,96505.47
2019-03-04T18:27:58.151Z,96511.99
2019-03-04T18:31:01.261Z,96529.66
2019-03-04T18:34:13.084Z,96538.53
2019-03-04T18:37:10.016Z,96556.65
2019-03-04T18:39:50.329Z,96574.79
2019-03-04T18:42:37.056Z,96568.30
2019-03-04T18:45:24.254Z,96590.38
2019-03-04T18:48:28.084Z,96600.43
2019-03-04T18:50:57.575Z,96608.27
2019-03-04T18:53:26.945Z,96621.58
2019-03-04T18:55:56.395Z,96634.75
2019-03-04T18:58:25.780Z,96643.16
2019-03-04T19:00:55.232Z,96639.69
2019-03-04T19:03:24.701Z,96637.67
2019-03-04T19:05:54.105Z,96654.91
2019-03-04T19:08:23.778Z,96670.17
2019-03-04T19:10:53.200Z,96661.58
2019-03-04T19:13:22.554Z,96685.40
2019-03-04T19:15:51.985Z,96692.44
2019-03-04T19:18:21.490Z,96700.91
2019-03-04T19:20:50.881Z,96703.89
2019-03-04T19:23:20.326Z,96709.88
2019-03-04T19:25:49.700Z,96727.67
2019-03-04T19:28:19.216Z,96718.77
2019-03-04T19:30:48.693Z,96729.84
2019-03-04T19:33:18.307Z,96753.83
2019-03-04T19:35:47.735Z,96758.61
2019-03-04T19:38:17.190Z,96763.07
2019-03-04T19:40:46.572Z,96769.11
2019-03-04T19:43:15.984Z,96770.14
2019-03-04T19:45:46.103Z,96772.17
2019-03-04T19:48:15.760Z,96780.00
2019-03-04T19:50:45.216Z,96784.98
2019-03-04T19:53:14.561Z,96771.42
2019-03-04T19:55:44.240Z,96780.84
2019-03-04T19:58:13.627Z,96785.08
2019-03-04T20:00:43.328Z,96788.30
2019-03-04T20:03:12.841Z,96790.58
2019-03-04T20:05:43.755Z,96795.52
2019-03-04T20:08:13.900Z,96790.56
2019-03-04T20:10:43.523Z,96792.20
2019-03-04T20:13:12.908Z,96788.45
2019-03-04T20:15:42.469Z,96791.76
2019-03-04T20:18:12.024Z,96802.55
2019-03-04T20:20:42.311Z,96807.13
2019-03-04T20:23:11.827Z,96815.08
2019-03-04T20:25:41.241Z,96818.23
2019-03-04T20:28:11.893Z,96823.20
2019-03-04T20:30:41.597Z,96825.55
2019-03-04T20:33:11.016Z,96830.59
2019-03-04T20:35:40.437Z,96838.84
2019-03-04T20:38:09.873Z,96840.67
2019-03-04T20:40:39.726Z,96841.12
2019-03-04T20:43:09.102Z,96850.84
2019-03-04T20:45:38.465Z,96848.77
2019-03-04T20:48:07.895Z,96846.88
2019-03-04T20:50:37.251Z,96859.02
2019-03-04T20:53:06.768Z,96869.91
2019-03-04T20:55:36.243Z,96870.22
2019-03-04T20:58:06.383Z,96871.31
2019-03-04T21:00:36.335Z,96881.47
2019-03-04T21:03:06.238Z,96888.47
2019-03-04T21:05:36.018Z,96895.57
2019-03-04T21:08:06.093Z,96899.08
2019-03-04T21:10:36.716Z,96905.03
2019-03-04T21:13:16.194Z,96913.98
2019-03-04T21:15:45.637Z,96919.10
2019-03-04T21:18:15.125Z,96919.29
2019-03-04T21:20:44.689Z,96912.55
2019-03-04T21:23:14.134Z,96918.83
2019-03-04T21:25:48.138Z,96924.34
2019-03-04T21:28:41.238Z,96927.53
2019-03-04T21:31:22.705Z,96921.92
2019-03-04T21:34:23.730Z,96936.05
2019-03-04T21:37:13.808Z,96939.98
2019-03-04T21:39:43.628Z,96937.14
2019-03-04T21:42:43.652Z,96931.84
2019-03-04T21:46:06.830Z,96934.09
2019-03-04T21:48:47.256Z,96947.36
2019-03-04T21:52:03.913Z,96941.38
2019-03-04T21:54:33.374Z,96942.37
2019-03-04T21:57:16.666Z,96943.28
2019-03-04T21:59:46.018Z,96944.50
2019-03-04T22:02:25.938Z,96941.95
2019-03-04T22:04:56.394Z,96949.28
2019-03-04T22:07:26.152Z,96953.48
2019-03-04T22:09:55.528Z,96955.73
2019-03-04T22:12:24.947Z,96955.73
2019-03-04T22:14:54.321Z,96964.50
2019-03-04T22:17:23.733Z,96970.09
2019-03-04T22:19:53.207Z,96977.65
2019-03-04T22:22:22.593Z,96972.03
2019-03-04T22:24:52.246Z,96983.43
2019-03-04T22:27:21.745Z,96976.08
2019-03-04T22:29:51.134Z,96980.94
2019-03-04T22:32:20.517Z,96984.03
2019-03-04T22:34:49.909Z,96980.86
2019-03-04T22:37:19.352Z,96977.45
2019-03-04T22:39:48.803Z,96990.97
2019-03-04T22:42:18.175Z,96988.82
2019-03-04T22:44:47.586Z,96992.69
2019-03-04T22:47:17.143Z,96999.18
2019-03-04T22:49:46.574Z,96996.19
2019-03-04T22:52:15.927Z,97000.20
2019-03-04T22:54:45.327Z,97004.06
2019-03-04T22:57:14.780Z,96997.17
2019-03-04T22:59:44.153Z,96996.33
2019-03-04T23:02:14.207Z,97002.76
2019-03-04T23:04:59.701Z,97000.51
2019-03-04T23:07:39.479Z,96992.17
2019-03-04T23:10:53.110Z,96996.50
2019-03-04T23:13:50.238Z,97000.00
2019-03-04T23:16:23.249Z,97001.09
2019-03-04T23:18:52.621Z,96999.28
2019-03-04T23:21:22.237Z,97001.55
2019-03-04T23:23:51.751Z,97001.66
2019-03-04T23:26:21.567Z,96997.79
2019-03-04T23:28:50.972Z,96996.60
2019-03-04T23:31:20.405Z,97004.91
2019-03-04T23:33:49.933Z,97010.14
2019-03-04T23:36:19.299Z,96999.72
2019-03-04T23:38:48.762Z,96996.81
2019-03-04T23:41:18.278Z,97000.73
2019-03-04T23:43:47.658Z,96993.45
2019-03-04T23:46:17.064Z,96985.49
2019-03-04T23:48:46.498Z,96987.79
2019-03-04T23:51:15.923Z,96985.20
2019-03-04T23:53:45.304Z,97001.59
2019-03-04T23:56:14.926Z,96987.55
2019-03-04T23:58:44.399Z,96990.89
